sensor_id;sensor_type;location;lat;lon;timestamp;P1;durP1;ratioP1;P2;durP2;ratioP2
9330;SDS011;4704;50.470;12.072;2023-10-19T00:00:30;8.48;;;6.90;;
9330;SDS011;4704;50.470;12.072;2023-10-19T00:03:02;8.00;;;7.30;;
9330;SDS011;4704;50.470;12.072;2023-10-19T00:05:29;7.90;;;7.30;;
9330;SDS011;4704;50.470;12.072;2023-10-19T00:07:57;8.35;;;7.65;;
9330;SDS011;4704;50.470;12.072;2023-10-19T00:10:26;8.38;;;7.68;;
9330;SDS011;4704;50.470;12.072;2023-10-19T00:13:00;8.07;;;7.38;;
9330;SDS011;4704;50.470;12.072;2023-10-19T00:15:29;8.40;;;7.70;;
9330;SDS011;4704;50.470;12.072;2023-10-19T00:17:59;8.27;;;7.57;;
9330;SDS011;4704;50.470;12.072;2023-10-19T00:20:39;7.32;;;6.72;;
9330;SDS011;4704;50.470;12.072;2023-10-19T00:23:16;7.85;;;7.25;;
9330;SDS011;4704;50.470;12.072;2023-10-19T00:25:44;8.48;;;7.72;;
9330;SDS011;4704;50.470;12.072;2023-10-19T00:28:16;7.93;;;7.22;;
9330;SDS011;4704;50.470;12.072;2023-10-19T00:30:43;8.23;;;7.53;;
9330;SDS011;4704;50.470;12.072;2023-10-19T00:33:10;7.90;;;7.20;;
9330;SDS011;4704;50.470;12.072;2023-10-19T00:35:45;7.75;;;7.15;;
9330;SDS011;4704;50.470;12.072;2023-10-19T00:38:25;7.53;;;6.93;;
9330;SDS011;4704;50.470;12.072;2023-10-19T00:41:09;7.68;;;7.00;;
9330;SDS011;4704;50.470;12.072;2023-10-19T00:43:45;8.57;;;7.88;;
9330;SDS011;4704;50.470;12.072;2023-10-19T00:46:14;8.02;;;7.32;;
9330;SDS011;4704;50.470;12.072;2023-10-19T00:48:47;7.80;;;7.10;;
9330;SDS011;4704;50.470;12.072;2023-10-19T00:51:18;7.82;;;7.13;;
9330;SDS011;4704;50.470;12.072;2023-10-19T00:54:04;8.00;;;7.30;;
9330;SDS011;4704;50.470;12.072;2023-10-19T00:56:34;8.23;;;7.53;;
9330;SDS011;4704;50.470;12.072;2023-10-19T00:59:02;8.13;;;7.40;;
9330;SDS011;4704;50.470;12.072;2023-10-19T01:01:38;8.35;;;7.65;;
9330;SDS011;4704;50.470;12.072;2023-10-19T01:04:09;7.55;;;6.95;;
9330;SDS011;4704;50.470;12.072;2023-10-19T01:06:40;7.25;;;6.65;;
9330;SDS011;4704;50.470;12.072;2023-10-19T01:09:11;7.40;;;6.78;;
9330;SDS011;4704;50.470;12.072;2023-10-19T01:11:41;7.10;;;6.50;;
9330;SDS011;4704;50.470;12.072;2023-10-19T01:14:19;7.38;;;6.78;;
9330;SDS011;4704;50.470;12.072;2023-10-19T01:16:48;7.53;;;6.88;;
9330;SDS011;4704;50.470;12.072;2023-10-19T01:19:16;7.68;;;7.03;;
9330;SDS011;4704;50.470;12.072;2023-10-19T01:21:47;7.80;;;7.10;;
9330;SDS011;4704;50.470;12.072;2023-10-19T01:24:19;7.13;;;6.53;;
9330;SDS011;4704;50.470;12.072;2023-10-19T01:26:58;7.57;;;6.97;;
9330;SDS011;4704;50.470;12.072;2023-10-19T01:29:28;7.10;;;6.53;;
9330;SDS011;4704;50.470;12.072;2023-10-19T01:31:56;6.50;;;6.00;;
9330;SDS011;4704;50.470;12.072;2023-10-19T01:34:31;6.78;;;6.25;;
9330;SDS011;4704;50.470;12.072;2023-10-19T01:36:59;7.82;;;7.20;;
9330;SDS011;4704;50.470;12.072;2023-10-19T01:39:31;7.43;;;6.82;;
9330;SDS011;4704;50.470;12.072;2023-10-19T01:41:57;7.70;;;7.10;;
9330;SDS011;4704;50.470;12.072;2023-10-19T01:44:25;6.65;;;6.15;;
9330;SDS011;4704;50.470;12.072;2023-10-19T01:46:51;6.80;;;6.20;;
9330;SDS011;4704;50.470;12.072;2023-10-19T01:49:19;7.72;;;7.05;;
9330;SDS011;4704;50.470;12.072;2023-10-19T01:51:51;7.68;;;7.07;;
9330;SDS011;4704;50.470;12.072;2023-10-19T01:54:19;7.00;;;6.40;;
9330;SDS011;4704;50.470;12.072;2023-10-19T01:56:51;6.90;;;6.30;;
9330;SDS011;4704;50.470;12.072;2023-10-19T01:59:20;6.95;;;6.45;;
9330;SDS011;4704;50.470;12.072;2023-10-19T02:01:46;7.60;;;6.90;;
9330;SDS011;4704;50.470;12.072;2023-10-19T02:04:14;7.43;;;6.82;;
9330;SDS011;4704;50.470;12.072;2023-10-19T02:06:41;6.93;;;6.32;;
9330;SDS011;4704;50.470;12.072;2023-10-19T02:09:11;7.25;;;6.65;;
9330;SDS011;4704;50.470;12.072;2023-10-19T02:11:47;7.75;;;7.05;;
9330;SDS011;4704;50.470;12.072;2023-10-19T02:14:16;7.22;;;6.57;;
9330;SDS011;4704;50.470;12.072;2023-10-19T02:16:44;7.72;;;7.03;;
9330;SDS011;4704;50.470;12.072;2023-10-19T02:19:12;7.03;;;6.43;;
9330;SDS011;4704;50.470;12.072;2023-10-19T02:21:39;7.30;;;6.70;;
9330;SDS011;4704;50.470;12.072;2023-10-19T02:24:07;7.38;;;6.78;;
9330;SDS011;4704;50.470;12.072;2023-10-19T02:26:34;7.13;;;6.53;;
9330;SDS011;4704;50.470;12.072;2023-10-19T02:29:03;7.65;;;7.05;;
9330;SDS011;4704;50.470;12.072;2023-10-19T02:31:34;7.38;;;6.78;;
9330;SDS011;4704;50.470;12.072;2023-10-19T02:34:03;7.10;;;6.50;;
9330;SDS011;4704;50.470;12.072;2023-10-19T02:36:30;7.85;;;7.25;;
9330;SDS011;4704;50.470;12.072;2023-10-19T02:38:59;7.90;;;7.20;;
9330;SDS011;4704;50.470;12.072;2023-10-19T02:41:29;7.78;;;7.18;;
9330;SDS011;4704;50.470;12.072;2023-10-19T02:43:56;7.65;;;7.05;;
9330;SDS011;4704;50.470;12.072;2023-10-19T02:46:30;7.53;;;6.93;;
9330;SDS011;4704;50.470;12.072;2023-10-19T02:49:01;7.10;;;6.50;;
9330;SDS011;4704;50.470;12.072;2023-10-19T02:51:34;6.97;;;6.38;;
9330;SDS011;4704;50.470;12.072;2023-10-19T02:54:01;6.72;;;6.13;;
9330;SDS011;4704;50.470;12.072;2023-10-19T02:56:30;7.00;;;6.43;;
9330;SDS011;4704;50.470;12.072;2023-10-19T02:59:00;7.90;;;7.20;;
9330;SDS011;4704;50.470;12.072;2023-10-19T03:01:29;7.88;;;7.13;;
9330;SDS011;4704;50.470;12.072;2023-10-19T03:04:01;7.25;;;6.65;;
9330;SDS011;4704;50.470;12.072;2023-10-19T03:06:30;7.43;;;6.78;;
9330;SDS011;4704;50.470;12.072;2023-10-19T03:08:58;7.90;;;7.22;;
9330;SDS011;4704;50.470;12.072;2023-10-19T03:11:29;7.05;;;6.45;;
9330;SDS011;4704;50.470;12.072;2023-10-19T03:13:57;7.82;;;7.22;;
9330;SDS011;4704;50.470;12.072;2023-10-19T03:16:25;7.45;;;6.85;;
9330;SDS011;4704;50.470;12.072;2023-10-19T03:18:55;7.28;;;6.68;;
9330;SDS011;4704;50.470;12.072;2023-10-19T03:21:25;7.30;;;6.70;;
9330;SDS011;4704;50.470;12.072;2023-10-19T03:23:52;7.22;;;6.55;;
9330;SDS011;4704;50.470;12.072;2023-10-19T03:26:21;7.90;;;7.20;;
9330;SDS011;4704;50.470;12.072;2023-10-19T03:28:53;7.10;;;6.50;;
9330;SDS011;4704;50.470;12.072;2023-10-19T03:31:21;7.55;;;6.85;;
9330;SDS011;4704;50.470;12.072;2023-10-19T03:33:50;8.40;;;7.60;;
9330;SDS011;4704;50.470;12.072;2023-10-19T03:36:21;8.48;;;7.78;;
9330;SDS011;4704;50.470;12.072;2023-10-19T03:38:50;7.85;;;7.22;;
9330;SDS011;4704;50.470;12.072;2023-10-19T03:41:18;7.63;;;6.95;;
9330;SDS011;4704;50.470;12.072;2023-10-19T03:43:49;7.40;;;6.80;;
9330;SDS011;4704;50.470;12.072;2023-10-19T03:46:17;7.40;;;6.70;;
9330;SDS011;4704;50.470;12.072;2023-10-19T03:48:50;8.00;;;7.30;;
9330;SDS011;4704;50.470;12.072;2023-10-19T03:51:17;7.32;;;6.72;;
9330;SDS011;4704;50.470;12.072;2023-10-19T03:53:51;7.18;;;6.57;;
9330;SDS011;4704;50.470;12.072;2023-10-19T03:56:23;8.10;;;7.35;;
9330;SDS011;4704;50.470;12.072;2023-10-19T03:58:51;6.95;;;6.35;;
9330;SDS011;4704;50.470;12.072;2023-10-19T04:01:19;7.40;;;6.80;;
9330;SDS011;4704;50.470;12.072;2023-10-19T04:03:47;7.40;;;6.80;;
9330;SDS011;4704;50.470;12.072;2023-10-19T04:06:16;8.02;;;7.25;;
9330;SDS011;4704;50.470;12.072;2023-10-19T04:08:45;7.18;;;6.57;;
9330;SDS011;4704;50.470;12.072;2023-10-19T04:11:17;7.47;;;6.80;;
9330;SDS011;4704;50.470;12.072;2023-10-19T04:13:50;6.80;;;6.30;;
9330;SDS011;4704;50.470;12.072;2023-10-19T04:16:21;7.18;;;6.47;;
9330;SDS011;4704;50.470;12.072;2023-10-19T04:18:48;6.78;;;6.18;;
9330;SDS011;4704;50.470;12.072;2023-10-19T04:21:15;6.63;;;6.13;;
9330;SDS011;4704;50.470;12.072;2023-10-19T04:23:43;6.38;;;5.85;;
9330;SDS011;4704;50.470;12.072;2023-10-19T04:26:11;6.57;;;5.97;;
9330;SDS011;4704;50.470;12.072;2023-10-19T04:28:41;7.22;;;6.63;;
9330;SDS011;4704;50.470;12.072;2023-10-19T04:31:15;6.65;;;6.10;;
9330;SDS011;4704;50.470;12.072;2023-10-19T04:33:42;6.45;;;5.95;;
9330;SDS011;4704;50.470;12.072;2023-10-19T04:36:15;7.07;;;6.47;;
9330;SDS011;4704;50.470;12.072;2023-10-19T04:38:46;6.20;;;5.70;;
9330;SDS011;4704;50.470;12.072;2023-10-19T04:41:13;6.65;;;6.15;;
9330;SDS011;4704;50.470;12.072;2023-10-19T04:43:42;6.32;;;5.80;;
9330;SDS011;4704;50.470;12.072;2023-10-19T04:46:15;6.35;;;5.85;;
9330;SDS011;4704;50.470;12.072;2023-10-19T04:48:44;6.72;;;6.22;;
9330;SDS011;4704;50.470;12.072;2023-10-19T04:51:11;7.03;;;6.43;;
9330;SDS011;4704;50.470;12.072;2023-10-19T04:53:38;6.93;;;6.32;;
9330;SDS011;4704;50.470;12.072;2023-10-19T04:56:07;6.30;;;5.80;;
9330;SDS011;4704;50.470;12.072;2023-10-19T04:58:38;6.30;;;5.78;;
9330;SDS011;4704;50.470;12.072;2023-10-19T05:01:06;7.28;;;6.68;;
9330;SDS011;4704;50.470;12.072;2023-10-19T05:03:36;6.93;;;6.32;;
9330;SDS011;4704;50.470;12.072;2023-10-19T05:06:04;6.93;;;6.32;;
9330;SDS011;4704;50.470;12.072;2023-10-19T05:08:31;7.25;;;6.65;;
9330;SDS011;4704;50.470;12.072;2023-10-19T05:10:59;6.78;;;6.20;;
9330;SDS011;4704;50.470;12.072;2023-10-19T05:13:26;6.53;;;6.03;;
9330;SDS011;4704;50.470;12.072;2023-10-19T05:15:55;6.05;;;5.55;;
9330;SDS011;4704;50.470;12.072;2023-10-19T05:18:25;6.00;;;5.50;;
9330;SDS011;4704;50.470;12.072;2023-10-19T05:20:53;6.43;;;5.93;;
9330;SDS011;4704;50.470;12.072;2023-10-19T05:23:22;6.82;;;6.22;;
9330;SDS011;4704;50.470;12.072;2023-10-19T05:25:50;6.35;;;5.85;;
9330;SDS011;4704;50.470;12.072;2023-10-19T05:28:18;6.13;;;5.63;;
9330;SDS011;4704;50.470;12.072;2023-10-19T05:30:47;5.90;;;5.40;;
9330;SDS011;4704;50.470;12.072;2023-10-19T05:33:15;6.30;;;5.80;;
9330;SDS011;4704;50.470;12.072;2023-10-19T05:35:47;6.65;;;6.05;;
9330;SDS011;4704;50.470;12.072;2023-10-19T05:38:15;6.38;;;5.85;;
9330;SDS011;4704;50.470;12.072;2023-10-19T05:40:42;6.30;;;5.80;;
9330;SDS011;4704;50.470;12.072;2023-10-19T05:43:10;5.95;;;5.45;;
9330;SDS011;4704;50.470;12.072;2023-10-19T05:45:37;6.60;;;6.00;;
9330;SDS011;4704;50.470;12.072;2023-10-19T05:48:05;6.43;;;5.90;;
9330;SDS011;4704;50.470;12.072;2023-10-19T05:50:32;6.32;;;5.72;;
9330;SDS011;4704;50.470;12.072;2023-10-19T05:53:01;6.00;;;5.50;;
9330;SDS011;4704;50.470;12.072;2023-10-19T05:55:30;6.20;;;5.70;;
9330;SDS011;4704;50.470;12.072;2023-10-19T05:57:59;6.30;;;5.80;;
9330;SDS011;4704;50.470;12.072;2023-10-19T06:00:29;6.95;;;6.25;;
9330;SDS011;4704;50.470;12.072;2023-10-19T06:02:57;5.90;;;5.38;;
9330;SDS011;4704;50.470;12.072;2023-10-19T06:05:25;6.30;;;5.80;;
9330;SDS011;4704;50.470;12.072;2023-10-19T06:07:52;6.25;;;5.75;;
9330;SDS011;4704;50.470;12.072;2023-10-19T06:10:21;6.40;;;5.90;;
9330;SDS011;4704;50.470;12.072;2023-10-19T06:12:49;6.03;;;5.53;;
9330;SDS011;4704;50.470;12.072;2023-10-19T06:15:17;6.25;;;5.65;;
9330;SDS011;4704;50.470;12.072;2023-10-19T06:17:46;6.20;;;5.70;;
9330;SDS011;4704;50.470;12.072;2023-10-19T06:20:15;5.82;;;5.32;;
9330;SDS011;4704;50.470;12.072;2023-10-19T06:22:52;6.38;;;5.82;;
9330;SDS011;4704;50.470;12.072;2023-10-19T06:25:22;6.20;;;5.63;;
9330;SDS011;4704;50.470;12.072;2023-10-19T06:27:50;6.82;;;6.22;;
9330;SDS011;4704;50.470;12.072;2023-10-19T06:30:18;6.25;;;5.65;;
9330;SDS011;4704;50.470;12.072;2023-10-19T06:32:49;6.78;;;6.18;;
9330;SDS011;4704;50.470;12.072;2023-10-19T06:35:16;7.03;;;6.43;;
9330;SDS011;4704;50.470;12.072;2023-10-19T06:37:44;6.20;;;5.70;;
9330;SDS011;4704;50.470;12.072;2023-10-19T06:40:12;6.20;;;5.70;;
9330;SDS011;4704;50.470;12.072;2023-10-19T06:42:41;6.45;;;5.95;;
9330;SDS011;4704;50.470;12.072;2023-10-19T06:45:10;6.07;;;5.57;;
9330;SDS011;4704;50.470;12.072;2023-10-19T06:47:40;6.40;;;5.90;;
9330;SDS011;4704;50.470;12.072;2023-10-19T06:50:08;6.60;;;6.00;;
9330;SDS011;4704;50.470;12.072;2023-10-19T06:52:36;6.35;;;5.85;;
9330;SDS011;4704;50.470;12.072;2023-10-19T06:55:04;6.88;;;6.28;;
9330;SDS011;4704;50.470;12.072;2023-10-19T06:57:32;6.50;;;6.00;;
9330;SDS011;4704;50.470;12.072;2023-10-19T07:00:01;7.05;;;6.47;;
9330;SDS011;4704;50.470;12.072;2023-10-19T07:02:39;7.20;;;6.60;;
9330;SDS011;4704;50.470;12.072;2023-10-19T07:05:06;6.90;;;6.28;;
9330;SDS011;4704;50.470;12.072;2023-10-19T07:07:35;6.65;;;6.10;;
9330;SDS011;4704;50.470;12.072;2023-10-19T07:10:05;6.32;;;5.82;;
9330;SDS011;4704;50.470;12.072;2023-10-19T07:12:33;6.55;;;6.05;;
9330;SDS011;4704;50.470;12.072;2023-10-19T07:15:03;6.95;;;6.35;;
9330;SDS011;4704;50.470;12.072;2023-10-19T07:17:32;7.15;;;6.55;;
9330;SDS011;4704;50.470;12.072;2023-10-19T07:19:59;6.53;;;5.90;;
9330;SDS011;4704;50.470;12.072;2023-10-19T07:22:29;7.13;;;6.43;;
9330;SDS011;4704;50.470;12.072;2023-10-19T07:24:56;6.30;;;5.80;;
9330;SDS011;4704;50.470;12.072;2023-10-19T07:27:25;6.60;;;6.00;;
9330;SDS011;4704;50.470;12.072;2023-10-19T07:29:53;6.60;;;6.03;;
9330;SDS011;4704;50.470;12.072;2023-10-19T07:32:23;7.10;;;6.53;;
9330;SDS011;4704;50.470;12.072;2023-10-19T07:34:50;6.90;;;6.18;;
9330;SDS011;4704;50.470;12.072;2023-10-19T07:37:17;7.30;;;6.60;;
9330;SDS011;4704;50.470;12.072;2023-10-19T07:39:46;7.30;;;6.60;;
9330;SDS011;4704;50.470;12.072;2023-10-19T07:42:14;6.63;;;6.10;;
9330;SDS011;4704;50.470;12.072;2023-10-19T07:44:42;6.82;;;6.03;;
9330;SDS011;4704;50.470;12.072;2023-10-19T07:47:10;6.13;;;5.60;;
9330;SDS011;4704;50.470;12.072;2023-10-19T07:49:39;6.35;;;5.85;;
9330;SDS011;4704;50.470;12.072;2023-10-19T07:52:06;6.57;;;5.97;;
9330;SDS011;4704;50.470;12.072;2023-10-19T07:54:36;6.30;;;5.70;;
9330;SDS011;4704;50.470;12.072;2023-10-19T07:57:04;6.57;;;6.07;;
9330;SDS011;4704;50.470;12.072;2023-10-19T07:59:31;5.97;;;5.47;;
9330;SDS011;4704;50.470;12.072;2023-10-19T08:01:59;6.85;;;6.15;;
9330;SDS011;4704;50.470;12.072;2023-10-19T08:04:28;6.20;;;5.70;;
9330;SDS011;4704;50.470;12.072;2023-10-19T08:06:57;5.95;;;5.32;;
9330;SDS011;4704;50.470;12.072;2023-10-19T08:09:25;5.80;;;5.30;;
9330;SDS011;4704;50.470;12.072;2023-10-19T08:11:57;6.45;;;5.80;;
9330;SDS011;4704;50.470;12.072;2023-10-19T08:14:24;6.22;;;5.63;;
9330;SDS011;4704;50.470;12.072;2023-10-19T08:16:52;6.47;;;5.88;;
9330;SDS011;4704;50.470;12.072;2023-10-19T08:19:19;6.50;;;5.90;;
9330;SDS011;4704;50.470;12.072;2023-10-19T08:21:47;6.25;;;5.75;;
9330;SDS011;4704;50.470;12.072;2023-10-19T08:24:16;6.05;;;5.53;;
9330;SDS011;4704;50.470;12.072;2023-10-19T08:26:45;6.65;;;6.05;;
9330;SDS011;4704;50.470;12.072;2023-10-19T08:29:12;6.07;;;5.47;;
9330;SDS011;4704;50.470;12.072;2023-10-19T08:31:40;6.55;;;6.00;;
9330;SDS011;4704;50.470;12.072;2023-10-19T08:34:07;6.90;;;5.38;;
9330;SDS011;4704;50.470;12.072;2023-10-19T08:36:36;6.32;;;5.72;;
9330;SDS011;4704;50.470;12.072;2023-10-19T08:39:04;5.50;;;5.05;;
9330;SDS011;4704;50.470;12.072;2023-10-19T08:41:33;6.13;;;5.53;;
9330;SDS011;4704;50.470;12.072;2023-10-19T08:44:02;6.03;;;5.53;;
9330;SDS011;4704;50.470;12.072;2023-10-19T08:46:35;6.20;;;5.70;;
9330;SDS011;4704;50.470;12.072;2023-10-19T08:49:03;6.15;;;5.65;;
9330;SDS011;4704;50.470;12.072;2023-10-19T08:51:34;6.07;;;5.57;;
9330;SDS011;4704;50.470;12.072;2023-10-19T08:54:02;5.80;;;5.30;;
9330;SDS011;4704;50.470;12.072;2023-10-19T08:56:30;5.97;;;5.47;;
9330;SDS011;4704;50.470;12.072;2023-10-19T08:59:00;6.10;;;5.50;;
9330;SDS011;4704;50.470;12.072;2023-10-19T09:01:28;5.72;;;5.22;;
9330;SDS011;4704;50.470;12.072;2023-10-19T09:03:56;5.47;;;4.97;;
9330;SDS011;4704;50.470;12.072;2023-10-19T09:06:24;5.80;;;5.30;;
9330;SDS011;4704;50.470;12.072;2023-10-19T09:08:53;6.60;;;6.00;;
9330;SDS011;4704;50.470;12.072;2023-10-19T09:11:23;5.63;;;5.22;;
9330;SDS011;4704;50.470;12.072;2023-10-19T09:13:51;6.35;;;5.85;;
9330;SDS011;4704;50.470;12.072;2023-10-19T09:16:20;6.18;;;5.68;;
9330;SDS011;4704;50.470;12.072;2023-10-19T09:18:48;6.03;;;5.50;;
9330;SDS011;4704;50.470;12.072;2023-10-19T09:21:16;6.32;;;5.82;;
9330;SDS011;4704;50.470;12.072;2023-10-19T09:23:54;5.80;;;5.30;;
9330;SDS011;4704;50.470;12.072;2023-10-19T09:26:21;5.80;;;5.40;;
9330;SDS011;4704;50.470;12.072;2023-10-19T09:28:49;5.72;;;5.22;;
9330;SDS011;4704;50.470;12.072;2023-10-19T09:31:18;5.13;;;4.72;;
9330;SDS011;4704;50.470;12.072;2023-10-19T09:33:48;5.32;;;4.93;;
9330;SDS011;4704;50.470;12.072;2023-10-19T09:36:15;6.05;;;5.55;;
9330;SDS011;4704;50.470;12.072;2023-10-19T09:38:44;5.72;;;5.22;;
9330;SDS011;4704;50.470;12.072;2023-10-19T09:41:13;5.60;;;5.10;;
9330;SDS011;4704;50.470;12.072;2023-10-19T09:43:43;6.00;;;5.40;;
9330;SDS011;4704;50.470;12.072;2023-10-19T09:46:11;5.22;;;4.82;;
9330;SDS011;4704;50.470;12.072;2023-10-19T09:48:40;5.82;;;5.30;;
9330;SDS011;4704;50.470;12.072;2023-10-19T09:51:10;5.68;;;5.18;;
9330;SDS011;4704;50.470;12.072;2023-10-19T09:53:38;5.60;;;5.20;;
9330;SDS011;4704;50.470;12.072;2023-10-19T09:56:06;5.90;;;5.40;;
9330;SDS011;4704;50.470;12.072;2023-10-19T09:58:38;5.80;;;5.30;;
9330;SDS011;4704;50.470;12.072;2023-10-19T10:01:08;5.38;;;4.95;;
9330;SDS011;4704;50.470;12.072;2023-10-19T10:03:48;5.47;;;4.97;;
9330;SDS011;4704;50.470;12.072;2023-10-19T10:06:26;5.55;;;5.05;;
9330;SDS011;4704;50.470;12.072;2023-10-19T10:08:54;5.75;;;5.25;;
9330;SDS011;4704;50.470;12.072;2023-10-19T10:11:23;5.32;;;4.93;;
9330;SDS011;4704;50.470;12.072;2023-10-19T10:13:51;5.80;;;5.30;;
9330;SDS011;4704;50.470;12.072;2023-10-19T10:16:19;5.50;;;5.00;;
9330;SDS011;4704;50.470;12.072;2023-10-19T10:18:48;5.97;;;5.47;;
9330;SDS011;4704;50.470;12.072;2023-10-19T10:21:18;5.68;;;5.22;;
9330;SDS011;4704;50.470;12.072;2023-10-19T10:23:47;5.65;;;5.15;;
9330;SDS011;4704;50.470;12.072;2023-10-19T10:26:16;5.40;;;5.00;;
9330;SDS011;4704;50.470;12.072;2023-10-19T10:28:47;5.43;;;4.93;;
9330;SDS011;4704;50.470;12.072;2023-10-19T10:31:18;5.72;;;5.22;;
9330;SDS011;4704;50.470;12.072;2023-10-19T10:33:46;5.57;;;5.13;;
9330;SDS011;4704;50.470;12.072;2023-10-19T10:36:15;5.80;;;5.30;;
9330;SDS011;4704;50.470;12.072;2023-10-19T10:38:44;5.93;;;5.43;;
9330;SDS011;4704;50.470;12.072;2023-10-19T10:41:12;6.03;;;5.43;;
9330;SDS011;4704;50.470;12.072;2023-10-19T10:43:52;5.65;;;5.25;;
9330;SDS011;4704;50.470;12.072;2023-10-19T10:46:20;5.55;;;5.10;;
9330;SDS011;4704;50.470;12.072;2023-10-19T10:48:48;5.40;;;5.00;;
9330;SDS011;4704;50.470;12.072;2023-10-19T10:51:20;5.47;;;5.07;;
9330;SDS011;4704;50.470;12.072;2023-10-19T10:53:50;6.20;;;5.70;;
9330;SDS011;4704;50.470;12.072;2023-10-19T10:56:18;5.88;;;5.47;;
9330;SDS011;4704;50.470;12.072;2023-10-19T10:58:46;5.63;;;5.20;;
9330;SDS011;4704;50.470;12.072;2023-10-19T11:01:13;6.10;;;5.60;;
9330;SDS011;4704;50.470;12.072;2023-10-19T11:03:41;6.78;;;6.18;;
9330;SDS011;4704;50.470;12.072;2023-10-19T11:06:09;5.88;;;5.38;;
9330;SDS011;4704;50.470;12.072;2023-10-19T11:08:37;6.32;;;5.75;;
9330;SDS011;4704;50.470;12.072;2023-10-19T11:11:07;6.05;;;5.55;;
9330;SDS011;4704;50.470;12.072;2023-10-19T11:13:36;5.47;;;5.00;;
9330;SDS011;4704;50.470;12.072;2023-10-19T11:16:05;5.85;;;5.28;;
9330;SDS011;4704;50.470;12.072;2023-10-19T11:18:33;6.05;;;5.55;;
9330;SDS011;4704;50.470;12.072;2023-10-19T11:21:03;6.03;;;5.53;;
9330;SDS011;4704;50.470;12.072;2023-10-19T11:23:35;5.80;;;5.30;;
9330;SDS011;4704;50.470;12.072;2023-10-19T11:26:01;6.20;;;5.70;;
9330;SDS011;4704;50.470;12.072;2023-10-19T11:28:31;5.85;;;5.35;;
9330;SDS011;4704;50.470;12.072;2023-10-19T11:31:15;6.20;;;5.60;;
9330;SDS011;4704;50.470;12.072;2023-10-19T11:33:44;5.85;;;5.38;;
9330;SDS011;4704;50.470;12.072;2023-10-19T11:36:11;5.90;;;5.40;;
9330;SDS011;4704;50.470;12.072;2023-10-19T11:38:41;5.80;;;5.20;;
9330;SDS011;4704;50.470;12.072;2023-10-19T11:41:09;6.20;;;5.60;;
9330;SDS011;4704;50.470;12.072;2023-10-19T11:43:39;6.38;;;5.88;;
9330;SDS011;4704;50.470;12.072;2023-10-19T11:46:06;6.05;;;5.55;;
9330;SDS011;4704;50.470;12.072;2023-10-19T11:48:34;6.32;;;5.72;;
9330;SDS011;4704;50.470;12.072;2023-10-19T11:51:02;7.00;;;6.32;;
9330;SDS011;4704;50.470;12.072;2023-10-19T11:53:33;6.47;;;5.88;;
9330;SDS011;4704;50.470;12.072;2023-10-19T11:56:01;6.90;;;5.88;;
9330;SDS011;4704;50.470;12.072;2023-10-19T11:58:31;6.10;;;5.53;;
9330;SDS011;4704;50.470;12.072;2023-10-19T12:01:01;6.38;;;5.78;;
9330;SDS011;4704;50.470;12.072;2023-10-19T12:03:30;6.45;;;5.95;;
9330;SDS011;4704;50.470;12.072;2023-10-19T12:06:00;6.15;;;5.55;;
9330;SDS011;4704;50.470;12.072;2023-10-19T12:08:29;6.18;;;5.60;;
9330;SDS011;4704;50.470;12.072;2023-10-19T12:10:56;6.53;;;5.95;;
9330;SDS011;4704;50.470;12.072;2023-10-19T12:13:24;6.03;;;5.53;;
9330;SDS011;4704;50.470;12.072;2023-10-19T12:15:51;6.47;;;5.88;;
9330;SDS011;4704;50.470;12.072;2023-10-19T12:18:21;6.95;;;6.35;;
9330;SDS011;4704;50.470;12.072;2023-10-19T12:20:48;7.13;;;6.43;;
9330;SDS011;4704;50.470;12.072;2023-10-19T12:23:17;6.55;;;5.95;;
9330;SDS011;4704;50.470;12.072;2023-10-19T12:25:48;7.25;;;6.65;;
9330;SDS011;4704;50.470;12.072;2023-10-19T12:28:16;6.68;;;6.07;;
9330;SDS011;4704;50.470;12.072;2023-10-19T12:30:43;6.65;;;6.05;;
9330;SDS011;4704;50.470;12.072;2023-10-19T12:33:10;6.78;;;6.07;;
9330;SDS011;4704;50.470;12.072;2023-10-19T12:35:39;6.95;;;6.35;;
9330;SDS011;4704;50.470;12.072;2023-10-19T12:38:16;6.15;;;5.65;;
9330;SDS011;4704;50.470;12.072;2023-10-19T12:40:46;6.32;;;5.72;;
9330;SDS011;4704;50.470;12.072;2023-10-19T12:43:13;6.50;;;5.90;;
9330;SDS011;4704;50.470;12.072;2023-10-19T12:45:43;6.30;;;5.80;;
9330;SDS011;4704;50.470;12.072;2023-10-19T12:48:15;7.18;;;6.47;;
9330;SDS011;4704;50.470;12.072;2023-10-19T12:50:44;6.40;;;5.80;;
9330;SDS011;4704;50.470;12.072;2023-10-19T12:53:11;7.03;;;6.43;;
9330;SDS011;4704;50.470;12.072;2023-10-19T12:55:41;6.95;;;6.35;;
9330;SDS011;4704;50.470;12.072;2023-10-19T12:58:10;7.25;;;6.60;;
9330;SDS011;4704;50.470;12.072;2023-10-19T13:00:40;6.90;;;6.30;;
9330;SDS011;4704;50.470;12.072;2023-10-19T13:03:09;7.03;;;6.43;;
9330;SDS011;4704;50.470;12.072;2023-10-19T13:05:39;6.68;;;6.07;;
9330;SDS011;4704;50.470;12.072;2023-10-19T13:08:08;6.18;;;5.68;;
9330;SDS011;4704;50.470;12.072;2023-10-19T13:10:39;6.53;;;5.93;;
9330;SDS011;4704;50.470;12.072;2023-10-19T13:13:07;6.80;;;6.20;;
9330;SDS011;4704;50.470;12.072;2023-10-19T13:15:36;7.00;;;6.30;;
9330;SDS011;4704;50.470;12.072;2023-10-19T13:18:04;6.95;;;6.35;;
9330;SDS011;4704;50.470;12.072;2023-10-19T13:20:32;6.55;;;5.97;;
9330;SDS011;4704;50.470;12.072;2023-10-19T13:23:00;6.55;;;5.95;;
9330;SDS011;4704;50.470;12.072;2023-10-19T13:25:30;6.80;;;6.20;;
9330;SDS011;4704;50.470;12.072;2023-10-19T13:28:15;6.78;;;6.18;;
9330;SDS011;4704;50.470;12.072;2023-10-19T13:30:45;6.85;;;6.25;;
9330;SDS011;4704;50.470;12.072;2023-10-19T13:33:13;6.43;;;5.82;;
9330;SDS011;4704;50.470;12.072;2023-10-19T13:35:41;6.35;;;5.85;;
9330;SDS011;4704;50.470;12.072;2023-10-19T13:38:09;6.95;;;6.35;;
9330;SDS011;4704;50.470;12.072;2023-10-19T13:40:38;6.90;;;6.30;;
9330;SDS011;4704;50.470;12.072;2023-10-19T13:43:05;7.05;;;6.35;;
9330;SDS011;4704;50.470;12.072;2023-10-19T13:45:33;7.20;;;6.53;;
9330;SDS011;4704;50.470;12.072;2023-10-19T13:48:01;6.55;;;5.95;;
9330;SDS011;4704;50.470;12.072;2023-10-19T13:50:29;6.75;;;6.15;;
9330;SDS011;4704;50.470;12.072;2023-10-19T13:52:56;7.10;;;6.50;;
9330;SDS011;4704;50.470;12.072;2023-10-19T13:55:25;6.63;;;6.03;;
9330;SDS011;4704;50.470;12.072;2023-10-19T13:57:55;7.22;;;6.63;;
9330;SDS011;4704;50.470;12.072;2023-10-19T14:00:23;7.65;;;6.95;;
9330;SDS011;4704;50.470;12.072;2023-10-19T14:02:55;7.45;;;6.68;;
9330;SDS011;4704;50.470;12.072;2023-10-19T14:05:24;7.18;;;6.57;;
9330;SDS011;4704;50.470;12.072;2023-10-19T14:07:51;7.25;;;6.65;;
9330;SDS011;4704;50.470;12.072;2023-10-19T14:10:19;7.60;;;7.00;;
9330;SDS011;4704;50.470;12.072;2023-10-19T14:12:47;7.10;;;6.40;;
9330;SDS011;4704;50.470;12.072;2023-10-19T14:15:16;7.78;;;7.07;;
9330;SDS011;4704;50.470;12.072;2023-10-19T14:17:44;7.55;;;6.85;;
9330;SDS011;4704;50.470;12.072;2023-10-19T14:20:12;6.50;;;5.93;;
9330;SDS011;4704;50.470;12.072;2023-10-19T14:22:40;7.25;;;6.65;;
9330;SDS011;4704;50.470;12.072;2023-10-19T14:25:08;7.18;;;6.57;;
9330;SDS011;4704;50.470;12.072;2023-10-19T14:27:38;6.55;;;5.95;;
9330;SDS011;4704;50.470;12.072;2023-10-19T14:30:07;7.45;;;6.85;;
9330;SDS011;4704;50.470;12.072;2023-10-19T14:32:38;7.03;;;6.43;;
9330;SDS011;4704;50.470;12.072;2023-10-19T14:35:07;6.93;;;6.32;;
9330;SDS011;4704;50.470;12.072;2023-10-19T14:37:36;7.40;;;6.80;;
9330;SDS011;4704;50.470;12.072;2023-10-19T14:40:05;6.88;;;6.28;;
9330;SDS011;4704;50.470;12.072;2023-10-19T14:42:35;6.30;;;5.80;;
9330;SDS011;4704;50.470;12.072;2023-10-19T14:45:04;6.65;;;6.05;;
9330;SDS011;4704;50.470;12.072;2023-10-19T14:47:34;7.00;;;6.32;;
9330;SDS011;4704;50.470;12.072;2023-10-19T14:50:03;7.20;;;6.50;;
9330;SDS011;4704;50.470;12.072;2023-10-19T14:52:31;6.85;;;6.25;;
9330;SDS011;4704;50.470;12.072;2023-10-19T14:54:58;6.65;;;6.03;;
9330;SDS011;4704;50.470;12.072;2023-10-19T14:57:26;6.82;;;6.28;;
9330;SDS011;4704;50.470;12.072;2023-10-19T14:59:53;7.32;;;6.72;;
9330;SDS011;4704;50.470;12.072;2023-10-19T15:02:21;7.25;;;6.55;;
9330;SDS011;4704;50.470;12.072;2023-10-19T15:04:49;6.82;;;6.22;;
9330;SDS011;4704;50.470;12.072;2023-10-19T15:07:18;7.20;;;6.60;;
9330;SDS011;4704;50.470;12.072;2023-10-19T15:09:45;7.60;;;6.93;;
9330;SDS011;4704;50.470;12.072;2023-10-19T15:12:13;6.80;;;6.20;;